Кизильское

Карта отелей и гостиниц, располагающихся рядом с аэропортом Кизильское :

Кизильское Челябинская область 52° 42' 35.208" N, 58° 53' 33.072" E
Код аэродрома ИКАО: 
USCI
Код аэродрома RU: 
УСЦИ
Координаты: 
N52.70978° E058.89252°
Превышение над уровнем моря : 
330
Основная полоса: 
05/23
Курс магнитный: 
050/230
Длина основной ВПП: 
700
Ширина основной ВПП: 
100
Покрытие основной ВПП: 
Нетвёрдое (грунт)
Тип: 
Аэродром
Освещение ВПП: 
Нет
Класс аэродрома: 
Статус: 
Недействующий
Принадлежность: 
ГА
Сайт: 
E-mail аэродрома: 
Страна: 
Россия
Регион: 
Челябинская область
Город: 
Дополнительная информация: 
Бывший аэродром МВЛ. В н.в. полностью застроен, к посадке не пригоден. По данным Сборника №2 АНИ по МВЛ Уральского управления ГА (изд. 1981).

Найти трансфер

С помощью этой формы Вы можете найти трансфер из аэропорта Кизильское в город, аэропорт или вокзал:

Карта места

Javascript is required to view this map.

Погода в аэропортах:

Авиационная погода в аэропорту Новый

Регион: 
Погода METAR: 
UHHH 141730Z VRB01MPS 3600 BR NSC 17/15 Q1004 R23L/090060 NOSIG RMK QBB050 QFE747/0996
Время наблюдения: 
2020-07-14T17:30:00Z
Температура C: 
17.0
Точка росы: 
15.0
Направление ветра: 
0
Скорость ветра: 
2
Метеорологическая видимость: 
2.24
Явления погоды: 
BR
Условия полета: 
IFR
Аэропорт подробнее: 

Авиационная погода в Ульяновске

Регион: 
Погода METAR: 
UWLW 141800Z 11002MPS 8000 TS BKN040CB 29/16 Q1008 R02/CLRD60 NOSIG RMK QFE749
Время наблюдения: 
2020-07-14T18:00:00Z
Температура C: 
29.0
Точка росы: 
16.0
Направление ветра: 
110
Скорость ветра: 
4
Метеорологическая видимость: 
4.97
Явления погоды: 
TS
Условия полета: 
MVFR

Авиационная погода в Угольном

Регион: 
Погода METAR: 
UHMA 141800Z 00000MPS 1900 -DZ BR BKN004 BKN011 10/09 Q1003 R01/////// NOSIG RMK TDZ R01/00000G01MPS END R01/05001MPS MT OBSC QFE748/0998
Время наблюдения: 
2020-07-14T18:00:00Z
Температура C: 
10.0
Точка росы: 
9.0
Направление ветра: 
0
Скорость ветра: 
0
Метеорологическая видимость: 
1.18
Явления погоды: 
-DZ BR
Условия полета: 
LIFR
Аэропорт подробнее: 

Авиационная погода в Раменское

Регион: 
Погода METAR: 
UUBW 141730Z 02006MPS 9999 -TSRA FEW007 BKN024CB 18/17 Q0999 R30/210050 TEMPO 02010G18MPS 2100 -TSRA BKN012CB
Время наблюдения: 
2020-07-14T17:30:00Z
Температура C: 
18.0
Точка росы: 
17.0
Направление ветра: 
20
Скорость ветра: 
12
Метеорологическая видимость: 
6.21
Явления погоды: 
-TSRA
Условия полета: 
MVFR
Аэропорт подробнее: